Time;durP1;ratioP1;P1;durP2;ratioP2;P2;SDS_P1;SDS_P2;PMS_P1;PMS_P2;Temp;Humidity;BMP_temperature;BMP_pressure;BME280_temperature;BME280_humidity;BME280_pressure;Samples;Min_cycle;Max_cycle;Signal;HPM_P1;HPM_P2
2022/10/06 00:00:42;;;;;;;25.77;13.38;;;;;;;8.96;77.65;100779.94;2112000;83;28673;-65
2022/10/06 00:03:46;;;;;;;17.80;11.55;;;;;;;8.95;77.68;100777.70;2110842;83;27946;-71
2022/10/06 00:06:47;;;;;;;19.12;12.53;;;;;;;8.97;77.66;100777.67;2105625;83;34208;-66
2022/10/06 00:09:49;;;;;;;22.17;12.73;;;;;;;8.96;77.73;100782.13;2104235;83;29377;-64
2022/10/06 00:12:51;;;;;;;20.15;12.75;;;;;;;8.98;77.78;100786.10;2101686;83;27672;-72
2022/10/06 00:15:52;;;;;;;18.35;12.00;;;;;;;8.99;77.88;100780.28;2099528;83;29896;-68
2022/10/06 00:18:55;;;;;;;22.30;12.85;;;;;;;8.99;77.86;100782.50;2113626;83;31051;-70
2022/10/06 00:21:59;;;;;;;22.80;12.55;;;;;;;8.99;77.96;100783.84;2092253;83;33137;-65
2022/10/06 00:25:01;;;;;;;25.00;12.50;;;;;;;9.01;77.99;100785.11;2080624;83;30433;-72
2022/10/06 00:28:02;;;;;;;19.62;12.30;;;;;;;9.00;77.99;100784.25;2097109;83;27743;-68
2022/10/06 00:31:04;;;;;;;22.93;11.83;;;;;;;9.02;78.02;100787.72;2112965;83;29103;-67
2022/10/06 00:34:06;;;;;;;18.10;12.80;;;;;;;9.01;77.96;100780.66;2097455;83;31406;-66
2022/10/06 00:37:08;;;;;;;21.00;12.82;;;;;;;9.02;77.99;100784.19;2089566;84;33843;-69
2022/10/06 00:40:10;;;;;;;18.30;12.40;;;;;;;9.00;78.04;100780.24;2087723;83;29744;-70
2022/10/06 00:43:43;;;;;;;20.65;13.38;;;;;;;9.01;78.10;100781.99;2093203;83;27855;-65
2022/10/06 00:46:52;;;;;;;27.58;15.95;;;;;;;9.01;78.24;100780.66;2066636;85;29133;-70
2022/10/06 00:49:54;;;;;;;30.68;15.32;;;;;;;9.01;78.39;100777.98;1975385;88;31485;-73
2022/10/06 00:52:56;;;;;;;29.25;17.48;;;;;;;9.02;78.40;100781.03;1952550;90;32913;-64
2022/10/06 00:55:57;;;;;;;48.98;23.12;;;;;;;9.03;78.41;100784.12;1956506;90;29702;-70
2022/10/06 00:59:00;;;;;;;50.03;23.92;;;;;;;9.03;78.60;100780.11;1960303;89;27694;-70
2022/10/06 01:02:08;;;;;;;73.25;32.53;;;;;;;9.03;78.62;100780.11;1933194;89;29097;-64
2022/10/06 01:05:15;;;;;;;63.15;31.77;;;;;;;9.06;78.81;100791.17;1940986;90;31060;-68
2022/10/06 01:08:17;;;;;;;58.30;30.23;;;;;;;9.07;78.83;100787.58;1958909;90;33510;-65
2022/10/06 01:11:18;;;;;;;61.70;30.88;;;;;;;9.08;78.83;100787.98;2039612;86;30580;-64
2022/10/06 01:14:22;;;;;;;68.10;31.80;;;;;;;9.08;78.90;100788.84;2023167;87;28373;-68
2022/10/06 01:17:56;;;;;;;53.00;27.90;;;;;;;9.09;79.05;100785.73;2029706;84;29678;-67
2022/10/06 01:21:26;;;;;;;59.98;28.83;;;;;;;9.09;79.00;100794.61;2073446;83;31091;-67
2022/10/06 01:24:29;;;;;;;55.83;28.30;;;;;;;9.10;78.98;100796.83;2073003;84;33907;-68
2022/10/06 01:27:32;;;;;;;55.30;26.85;;;;;;;9.09;78.97;100797.75;2108922;83;29695;-71
2022/10/06 01:30:49;;;;;;;50.55;26.50;;;;;;;9.08;78.91;100795.53;2084509;84;27709;-65
2022/10/06 01:33:54;;;;;;;33.30;18.30;;;;;;;9.07;78.92;100797.79;2087220;84;28749;-64
2022/10/06 01:36:57;;;;;;;37.50;20.68;;;;;;;9.07;78.91;100795.59;2087828;83;32440;-64
2022/10/06 01:39:58;;;;;;;33.35;19.07;;;;;;;9.07;79.04;100796.45;2092039;83;33135;-64
2022/10/06 01:43:00;;;;;;;32.78;18.90;;;;;;;9.08;79.21;100798.68;2087007;84;29535;-65
2022/10/06 01:46:01;;;;;;;29.65;16.52;;;;;;;9.08;79.25;100792.00;2090017;84;27732;-69
2022/10/06 01:49:03;;;;;;;30.65;16.57;;;;;;;9.09;79.16;100794.61;2086784;84;28747;-65
2022/10/06 01:52:04;;;;;;;27.80;15.98;;;;;;;9.07;79.13;100788.44;2056719;85;31250;-64
2022/10/06 01:55:07;;;;;;;30.30;17.55;;;;;;;9.07;79.12;100797.79;2061837;84;33384;-64
2022/10/06 01:58:10;;;;;;;27.25;15.03;;;;;;;9.06;79.08;100800.53;2082777;83;29441;-64
2022/10/06 02:01:12;;;;;;;27.55;16.50;;;;;;;9.05;79.18;100808.99;2075834;84;28346;-64
2022/10/06 02:04:14;;;;;;;27.95;13.20;;;;;;;9.05;79.23;100806.32;2068183;84;29387;-65
2022/10/06 02:07:15;;;;;;;25.95;13.18;;;;;;;9.05;79.67;100810.81;2099245;83;31485;-65
2022/10/06 02:10:16;;;;;;;22.55;13.08;;;;;;;9.05;79.69;100801.45;2112123;83;33207;-64
2022/10/06 02:13:18;;;;;;;24.50;12.37;;;;;;;9.05;79.72;100798.78;2113887;83;29346;-65
2022/10/06 02:16:19;;;;;;;19.37;11.68;;;;;;;9.05;79.82;100806.80;2113926;83;27720;-65
2022/10/06 02:19:21;;;;;;;19.80;11.80;;;;;;;9.04;79.82;100805.91;2099899;83;28517;-67
2022/10/06 02:22:23;;;;;;;16.97;11.63;;;;;;;9.04;79.71;100809.06;2053369;85;31793;-64
2022/10/06 02:25:26;;;;;;;18.42;11.85;;;;;;;9.03;79.65;100815.33;2080310;85;34395;-65
2022/10/06 02:28:27;;;;;;;14.60;10.25;;;;;;;9.02;79.62;100823.80;2064299;85;29546;-68
2022/10/06 02:31:29;;;;;;;14.90;10.35;;;;;;;8.99;79.61;100825.27;2064392;84;27925;-64
2022/10/06 02:34:31;;;;;;;16.50;9.75;;;;;;;8.98;79.69;100827.52;2073807;85;29371;-64
2022/10/06 02:37:33;;;;;;;16.67;10.50;;;;;;;8.97;79.78;100828.45;2083156;85;32274;-64
2022/10/06 02:40:35;;;;;;;16.50;10.18;;;;;;;8.95;79.77;100828.48;2082285;85;32561;-64
2022/10/06 02:43:36;;;;;;;16.02;9.98;;;;;;;8.93;79.72;100830.36;2081986;84;29789;-64
2022/10/06 02:46:37;;;;;;;18.73;10.40;;;;;;;8.91;79.70;100830.88;2067497;85;27842;-65
2022/10/06 02:49:39;;;;;;;16.10;9.73;;;;;;;8.91;79.85;100832.20;2076569;83;28527;-65
2022/10/06 02:52:41;;;;;;;15.68;9.30;;;;;;;8.89;79.92;100835.39;2088091;83;31490;-64
2022/10/06 02:55:43;;;;;;;14.23;9.65;;;;;;;8.87;79.96;100843.92;2097427;84;33426;-70
2022/10/06 02:58:46;;;;;;;19.10;9.98;;;;;;;8.87;79.94;100848.37;2098813;83;29708;-68
2022/10/06 03:01:48;;;;;;;20.97;11.48;;;;;;;8.85;80.04;100844.91;2095955;83;27998;-66
2022/10/06 03:04:49;;;;;;;15.15;10.00;;;;;;;8.84;80.04;100848.50;2095239;83;29149;-68
2022/10/06 03:07:50;;;;;;;24.15;12.35;;;;;;;8.82;80.18;100852.54;2093898;83;32157;-70
2022/10/06 03:10:51;;;;;;;17.42;11.15;;;;;;;8.82;80.24;100849.87;2099657;83;32761;-68
2022/10/06 03:13:53;;;;;;;18.20;10.40;;;;;;;8.80;80.29;100849.05;2104879;83;29279;-67
2022/10/06 03:16:56;;;;;;;13.83;9.20;;;;;;;8.81;80.27;100854.80;2112320;83;27724;-67
2022/10/06 03:19:57;;;;;;;13.15;9.60;;;;;;;8.79;80.17;100858.88;2071140;83;28611;-65
2022/10/06 03:22:59;;;;;;;14.63;9.40;;;;;;;8.78;80.18;100866.47;2056427;85;31421;-71
2022/10/06 03:26:00;;;;;;;15.40;8.03;;;;;;;8.76;80.15;100874.99;2070176;85;34236;-68
2022/10/06 03:29:02;;;;;;;15.98;8.88;;;;;;;8.75;80.17;100866.56;2070362;85;29493;-71
2022/10/06 03:32:04;;;;;;;14.30;8.78;;;;;;;8.74;80.25;100874.16;2069114;84;27767;-64
2022/10/06 03:35:07;;;;;;;12.25;8.78;;;;;;;8.73;80.36;100872.42;2052949;84;29766;-69
2022/10/06 03:38:11;;;;;;;14.28;8.78;;;;;;;8.74;80.58;100878.65;2085991;84;31894;-64
2022/10/06 03:41:25;;;;;;;14.80;9.15;;;;;;;8.73;80.55;100880.91;2070247;85;33544;-65
2022/10/06 03:44:27;;;;;;;11.53;8.73;;;;;;;8.72;80.75;100880.02;2071290;85;29941;-68
2022/10/06 03:47:31;;;;;;;12.65;7.47;;;;;;;8.71;80.87;100884.95;2066935;85;27694;-64
2022/10/06 03:50:32;;;;;;;12.20;8.20;;;;;;;8.70;80.77;100880.52;2071909;84;30062;-67
2022/10/06 03:53:34;;;;;;;12.90;7.85;;;;;;;8.69;80.86;100888.13;2098111;83;31063;-70
2022/10/06 03:56:39;;;;;;;14.55;7.85;;;;;;;8.68;80.81;100893.09;2107445;83;33389;-64
2022/10/06 03:59:41;;;;;;;9.98;7.97;;;;;;;8.66;80.76;100894.45;2093101;83;29346;-71
2022/10/06 04:02:42;;;;;;;11.15;7.47;;;;;;;8.64;80.65;100897.63;2104413;83;27640;-69
2022/10/06 04:05:54;;;;;;;11.88;7.65;;;;;;;8.61;80.56;100907.55;2104876;83;29576;-73
2022/10/06 04:08:56;;;;;;;10.08;7.97;;;;;;;8.58;80.65;100903.62;2103813;83;31036;-71
2022/10/06 04:11:57;;;;;;;12.50;7.58;;;;;;;8.56;80.75;100911.70;2107952;83;33684;-67
2022/10/06 04:14:58;;;;;;;14.07;8.05;;;;;;;8.54;80.71;100913.98;2112965;83;29702;-68
2022/10/06 04:17:59;;;;;;;11.30;8.28;;;;;;;8.54;81.09;100914.87;2092777;83;27738;-72
2022/10/06 04:21:01;;;;;;;14.10;8.10;;;;;;;8.54;81.05;100922.00;2076841;84;29569;-72
2022/10/06 04:24:04;;;;;;;15.00;8.23;;;;;;;8.54;81.03;100922.00;2054507;83;31060;-71
2022/10/06 04:30:26;;;;;;;14.23;8.75;;;;;;;8.53;81.13;100925.59;2049330;85;29598;-69
2022/10/06 04:33:31;;;;;;;13.48;8.55;;;;;;;8.54;81.36;100932.68;2059394;85;27699;-67
2022/10/06 04:36:37;;;;;;;17.60;9.08;;;;;;;8.52;81.34;100930.07;2057332;85;28669;-71
2022/10/06 04:39:38;;;;;;;19.75;9.45;;;;;;;8.53;81.66;100926.92;2060993;84;31990;-65
2022/10/06 04:42:39;;;;;;;13.50;8.93;;;;;;;8.53;81.64;100929.15;2066450;85;32793;-71
2022/10/06 04:45:41;;;;;;;14.03;9.53;;;;;;;8.54;81.65;100932.23;2056407;86;30252;-71
2022/10/06 04:48:42;;;;;;;14.63;8.40;;;;;;;8.55;81.67;100935.77;2053360;86;27994;-70
2022/10/06 04:51:43;;;;;;;15.15;8.95;;;;;;;8.55;81.64;100939.77;2086613;84;29067;-71
2022/10/06 04:54:45;;;;;;;13.78;9.85;;;;;;;8.55;81.77;100944.67;2084227;84;31082;-72
2022/10/06 04:57:46;;;;;;;17.45;9.25;;;;;;;8.55;81.75;100950.45;2096380;83;33345;-65
2022/10/06 05:00:48;;;;;;;15.78;9.73;;;;;;;8.56;81.84;100953.54;2081663;83;30194;-71
2022/10/06 05:03:53;;;;;;;12.70;8.95;;;;;;;8.56;81.77;100957.10;2104704;83;27772;-73
2022/10/06 05:06:54;;;;;;;17.98;9.83;;;;;;;8.57;81.70;100969.53;2111668;83;28689;-63
2022/10/06 05:09:56;;;;;;;17.67;10.20;;;;;;;8.57;81.77;100972.65;2095700;83;31208;-69
2022/10/06 05:12:58;;;;;;;15.48;10.08;;;;;;;8.58;81.75;100975.73;2090335;83;33382;-68
2022/10/06 05:16:00;;;;;;;16.02;10.08;;;;;;;8.59;81.66;100983.72;2098412;83;29911;-71
2022/10/06 05:19:02;;;;;;;15.18;9.83;;;;;;;8.59;81.65;100994.84;2098105;83;27721;-70
2022/10/06 05:22:03;;;;;;;14.87;9.33;;;;;;;8.60;81.56;100993.93;2069000;83;29945;-70
2022/10/06 05:25:06;;;;;;;11.97;9.50;;;;;;;8.60;81.54;100996.16;2083000;83;32309;-71
2022/10/06 05:28:07;;;;;;;13.68;9.45;;;;;;;8.63;81.55;101003.19;2096746;83;33015;-67
2022/10/06 05:31:19;;;;;;;16.67;8.88;;;;;;;8.65;81.57;101004.02;2101797;83;30510;-66
2022/10/06 05:34:20;;;;;;;16.65;8.90;;;;;;;8.68;81.54;101006.61;2111664;83;27741;-66
2022/10/06 05:37:24;;;;;;;13.62;10.10;;;;;;;8.71;81.54;101009.63;2103283;83;28665;-67
2022/10/06 05:40:25;;;;;;;13.13;9.98;;;;;;;8.74;81.64;101010.88;2100893;83;31076;-68
2022/10/06 05:43:27;;;;;;;14.78;10.32;;;;;;;8.77;81.90;101019.67;2098429;83;34259;-69
2022/10/06 05:46:31;;;;;;;15.25;10.55;;;;;;;8.85;82.13;101015.91;2086169;83;29383;-64
2022/10/06 05:49:32;;;;;;;22.22;10.20;;;;;;;8.90;82.12;101013.50;2077864;83;27632;-65
2022/10/06 05:52:34;;;;;;;14.73;9.58;;;;;;;8.95;82.22;101011.53;2052271;85;28739;-65
2022/10/06 05:55:35;;;;;;;18.65;11.10;;;;;;;9.02;82.25;101030.06;2062344;85;31080;-65
2022/10/06 05:58:40;;;;;;;19.70;12.55;;;;;;;9.09;82.41;101040.98;2068698;84;32970;-66
2022/10/06 06:01:45;;;;;;;18.85;11.85;;;;;;;9.17;82.59;101032.24;2087922;84;29345;-63
2022/10/06 06:04:46;;;;;;;18.85;11.10;;;;;;;9.27;82.71;101031.48;2064455;84;27785;-63
2022/10/06 06:07:47;;;;;;;23.10;11.43;;;;;;;9.39;82.82;101047.60;2066205;84;29082;-64
2022/10/06 06:10:49;;;;;;;18.80;11.90;;;;;;;9.50;83.03;101054.80;2050322;85;32218;-66
2022/10/06 06:14:04;;;;;;;20.57;12.98;;;;;;;9.63;83.12;101065.08;2053312;84;34196;-64
2022/10/06 06:17:05;;;;;;;26.33;14.03;;;;;;;9.74;83.25;101064.28;2050974;85;29808;-69
2022/10/06 06:20:08;;;;;;;23.20;13.65;;;;;;;9.89;83.41;101066.88;2064760;83;27760;-64
2022/10/06 06:23:10;;;;;;;22.10;13.48;;;;;;;10.01;83.41;101069.12;2113600;83;28534;-64
2022/10/06 06:26:16;;;;;;;20.70;12.80;;;;;;;10.17;83.56;101063.26;2118900;82;30868;-63
2022/10/06 06:29:17;;;;;;;24.20;14.55;;;;;;;10.33;83.69;101069.81;2109005;83;33016;-64
2022/10/06 06:32:18;;;;;;;27.02;14.63;;;;;;;10.51;83.85;101083.46;2114966;83;29837;-64
2022/10/06 06:35:20;;;;;;;20.48;14.68;;;;;;;10.70;84.05;101080.10;2092343;83;28896;-67
2022/10/06 06:38:21;;;;;;;26.50;13.83;;;;;;;10.87;84.12;101087.04;2111883;82;29157;-64
2022/10/06 06:41:27;;;;;;;25.12;15.00;;;;;;;11.08;84.38;101088.48;2103887;83;31458;-64
2022/10/06 06:44:29;;;;;;;26.87;15.53;;;;;;;11.31;84.52;101096.11;2094387;83;32978;-69
2022/10/06 06:47:33;;;;;;;23.90;14.15;;;;;;;11.55;84.71;101095.58;2119106;81;29796;-64
2022/10/06 06:50:34;;;;;;;29.02;14.15;;;;;;;11.82;84.89;101102.96;2095013;83;27690;-64
2022/10/06 06:53:36;;;;;;;23.85;13.85;;;;;;;12.12;85.01;101103.08;2081398;84;29068;-65
2022/10/06 06:56:38;;;;;;;22.05;13.22;;;;;;;12.43;85.12;101111.13;2071859;84;31890;-67
2022/10/06 06:59:40;;;;;;;16.50;12.13;;;;;;;12.75;85.21;101110.15;2078012;85;33039;-68
2022/10/06 07:02:42;;;;;;;19.45;9.83;;;;;;;13.10;85.45;101109.47;2077205;84;29750;-66
2022/10/06 07:05:47;;;;;;;13.28;8.05;;;;;;;13.48;85.50;101110.34;2080987;85;27722;-66
2022/10/06 07:08:48;;;;;;;;;;;;;;;13.87;85.36;101113.83;2065388;84;28680;-66
2022/10/06 07:11:49;;;;;;;18.82;8.25;;;;;;;14.69;84.47;101112.32;2074114;85;31050;-65
2022/10/06 07:25:10;;;;;;;16.52;6.72;;;;;;;16.33;84.23;101128.30;2080216;84;29941;-67
2022/10/06 07:28:11;;;;;;;12.50;5.85;;;;;;;16.73;83.24;101119.05;2063793;84;32238;-65
2022/10/06 07:31:12;;;;;;;9.15;5.28;;;;;;;17.07;82.58;101122.38;2079233;85;33356;-66
2022/10/06 07:34:14;;;;;;;8.10;4.95;;;;;;;17.31;81.96;101129.90;2077579;85;30676;-66
2022/10/06 07:37:17;;;;;;;12.73;5.75;;;;;;;17.50;81.24;101130.91;2058986;84;27672;-68
2022/10/06 07:40:18;;;;;;;9.90;4.83;;;;;;;17.68;80.83;101136.97;2061638;84;29066;-68
2022/10/06 07:43:19;;;;;;;9.60;4.50;;;;;;;17.89;80.60;101138.73;2060328;84;32184;-65
2022/10/06 07:46:21;;;;;;;11.20;4.40;;;;;;;18.04;79.95;101134.12;2053034;84;33472;-65
2022/10/06 07:49:22;;;;;;;6.05;3.87;;;;;;;18.24;79.68;101143.25;2047423;85;29684;-68
2022/10/06 07:52:27;;;;;;;6.12;3.60;;;;;;;18.38;79.08;101138.59;2071638;84;27841;-65
2022/10/06 07:55:28;;;;;;;4.25;3.45;;;;;;;18.56;78.36;101148.29;2072028;85;28693;-69
2022/10/06 07:58:29;;;;;;;5.55;3.95;;;;;;;18.71;77.95;101155.35;2049711;85;31438;-66
2022/10/06 08:01:30;;;;;;;4.55;3.50;;;;;;;18.87;77.71;101155.12;2050466;85;34190;-67
2022/10/06 08:04:32;;;;;;;7.20;3.45;;;;;;;19.04;77.43;101158.03;2078080;83;29855;-61
2022/10/06 08:07:34;;;;;;;5.47;3.20;;;;;;;19.24;76.96;101159.80;2089830;83;27596;-62
2022/10/06 08:10:35;;;;;;;5.87;3.45;;;;;;;19.46;76.17;101157.73;2089034;83;29830;-60
2022/10/06 08:13:41;;;;;;;10.90;3.60;;;;;;;19.70;76.13;101165.03;2097112;83;31063;-63
2022/10/06 08:16:42;;;;;;;5.28;3.12;;;;;;;19.93;74.52;101174.25;2105195;83;32434;-65
2022/10/06 08:19:43;;;;;;;6.17;2.85;;;;;;;20.07;74.60;101181.85;2088466;83;30460;-64
2022/10/06 08:22:47;;;;;;;6.67;2.95;;;;;;;20.17;74.09;101187.84;2070316;85;27676;-63
2022/10/06 08:25:50;;;;;;;4.80;2.95;;;;;;;20.26;73.44;101196.27;2060676;85;29214;-65
2022/10/06 08:28:56;;;;;;;5.00;3.40;;;;;;;20.35;73.01;101198.30;2066797;85;32285;-65
2022/10/06 08:31:58;;;;;;;4.90;3.67;;;;;;;20.39;72.08;101203.01;2065590;85;33900;-64
2022/10/06 08:34:59;;;;;;;6.28;3.47;;;;;;;20.36;72.01;101209.53;2052343;84;29764;-66
2022/10/06 08:38:01;;;;;;;14.47;3.22;;;;;;;20.40;71.73;101214.27;2068426;84;27702;-64
2022/10/06 08:41:25;;;;;;;9.48;3.12;;;;;;;20.52;71.55;101225.57;2082525;85;29757;-63
2022/10/06 08:44:35;;;;;;;4.35;2.92;;;;;;;20.57;70.96;101225.20;2076814;85;32062;-62
2022/10/06 08:47:36;;;;;;;5.08;2.92;;;;;;;20.62;70.38;101225.73;2080147;84;33384;-64
2022/10/06 08:51:17;;;;;;;8.33;3.10;;;;;;;20.64;70.43;101238.22;2101208;84;30399;-63
2022/10/06 08:54:48;;;;;;;4.53;2.80;;;;;;;20.65;69.99;101251.36;2094212;82;27696;-63
2022/10/06 08:58:21;;;;;;;6.58;2.75;;;;;;;20.58;69.56;101249.61;2046663;83;28873;-62
2022/10/06 09:01:33;;;;;;;7.87;3.12;;;;;;;20.44;68.99;101247.94;2071538;83;31079;-63
2022/10/06 09:04:35;;;;;;;7.42;2.67;;;;;;;20.37;69.57;101257.54;2082283;83;33156;-61
2022/10/06 09:08:05;;;;;;;6.92;2.85;;;;;;;20.37;69.10;101264.85;2076781;83;30082;-62
2022/10/06 09:11:24;;;;;;;4.10;2.52;;;;;;;20.34;69.15;101261.88;2082602;84;27748;-66
2022/10/06 09:14:42;;;;;;;4.85;2.55;;;;;;;20.32;69.10;101263.34;2073040;83;28701;-64
2022/10/06 09:17:53;;;;;;;7.83;3.58;;;;;;;20.34;68.90;101282.30;2063472;84;31050;-61
2022/10/06 09:21:00;;;;;;;4.50;2.30;;;;;;;20.31;68.75;101283.88;2087809;81;33551;-63
2022/10/06 09:24:16;;;;;;;7.55;2.62;;;;;;;20.33;68.54;101281.91;2081814;83;29407;-64
2022/10/06 09:27:32;;;;;;;4.83;2.67;;;;;;;20.51;68.51;101288.31;2066810;83;28276;-63
2022/10/06 09:30:33;;;;;;;4.70;2.60;;;;;;;20.64;68.33;101287.74;2038623;85;29090;-62
2022/10/06 09:33:38;;;;;;;4.10;2.95;;;;;;;20.76;68.08;101296.36;2075421;83;31062;-62
2022/10/06 09:37:03;;;;;;;4.70;3.30;;;;;;;20.76;67.37;101292.27;2070442;83;33786;-63
2022/10/06 09:40:11;;;;;;;6.28;3.33;;;;;;;20.82;67.42;101299.60;2081422;83;29441;-62
2022/10/06 09:43:32;;;;;;;5.72;2.83;;;;;;;20.82;66.73;101311.34;2055342;84;27774;-61
2022/10/06 09:46:40;;;;;;;3.92;2.75;;;;;;;20.77;67.00;101319.88;2053949;83;27816;-63
2022/10/06 09:49:42;;;;;;;3.72;2.85;;;;;;;20.67;66.50;101322.03;2087898;83;31402;-64
2022/10/06 09:53:02;;;;;;;6.50;3.12;;;;;;;20.53;66.61;101328.50;2076491;83;48419;-61
2022/10/06 09:56:20;;;;;;;6.75;3.30;;;;;;;20.43;66.78;101333.30;2063170;83;29438;-63
2022/10/06 09:59:32;;;;;;;5.30;3.00;;;;;;;20.38;66.79;101333.27;2053890;85;27883;-63
2022/10/06 10:02:36;;;;;;;5.97;3.02;;;;;;;20.29;66.47;101348.43;2082568;83;29088;-62
2022/10/06 10:05:48;;;;;;;4.20;2.52;;;;;;;20.15;66.19;101346.25;2061687;85;31528;-63
2022/10/06 10:08:49;;;;;;;6.05;3.25;;;;;;;20.08;66.54;101351.74;2064158;84;34273;-62
2022/10/06 10:12:26;;;;;;;4.35;2.77;;;;;;;20.04;66.46;101360.62;2057934;85;30690;-63
2022/10/06 10:15:37;;;;;;;6.83;2.83;;;;;;;20.03;66.43;101362.08;2055380;83;28044;-63
2022/10/06 10:18:44;;;;;;;4.05;2.45;;;;;;;20.00;66.30;101374.06;2049046;84;28773;-62
2022/10/06 10:21:46;;;;;;;6.58;2.83;;;;;;;19.86;65.72;101379.60;2078813;84;31131;-65
2022/10/06 10:25:29;;;;;;;3.58;2.85;;;;;;;19.75;66.04;101381.73;2049744;83;34186;-64
2022/10/06 10:28:47;;;;;;;4.78;3.00;;;;;;;19.68;65.95;101381.30;2089361;83;30641;-64
2022/10/06 10:32:01;;;;;;;5.17;2.87;;;;;;;19.55;65.93;101396.23;2094868;83;27715;-63
2022/10/06 10:35:40;;;;;;;7.08;3.40;;;;;;;19.43;65.58;101395.27;2101960;83;28657;-63
2022/10/06 10:38:43;;;;;;;3.65;2.40;;;;;;;19.28;65.42;101394.48;2099198;83;31052;-62
2022/10/06 10:41:49;;;;;;;3.08;2.40;;;;;;;19.22;65.27;101405.75;2094029;83;33010;-62
2022/10/06 10:45:00;;;;;;;3.30;2.47;;;;;;;19.18;65.51;101402.00;2086425;84;30580;-62
2022/10/06 10:48:13;;;;;;;5.12;2.35;;;;;;;19.20;65.43;101413.13;2093576;84;27742;-63
2022/10/06 10:51:30;;;;;;;4.67;2.40;;;;;;;19.19;65.51;101414.61;2078235;83;29684;-65
2022/10/06 10:55:06;;;;;;;8.30;2.00;;;;;;;19.18;65.28;101419.19;2015515;85;31057;-64
2022/10/06 10:58:33;;;;;;;6.10;2.15;;;;;;;19.19;65.41;101425.48;2032720;85;33070;-64
2022/10/06 11:01:46;;;;;;;2.70;1.80;;;;;;;19.23;65.27;101431.09;2025960;85;30039;-63
2022/10/06 11:04:56;;;;;;;3.12;1.52;;;;;;;19.27;65.50;101429.91;2020270;86;27891;-65
2022/10/06 11:08:12;;;;;;;5.00;2.12;;;;;;;19.34;65.59;101433.08;1989039;87;28727;-63
2022/10/06 11:11:36;;;;;;;5.22;1.37;;;;;;;19.32;64.67;101439.95;1982902;88;32122;-67
2022/10/06 11:14:49;;;;;;;4.67;1.57;;;;;;;19.27;64.59;101440.78;1987752;87;33008;-63
2022/10/06 11:17:53;;;;;;;3.08;1.20;;;;;;;19.28;64.75;101447.45;1999141;87;29351;-61
2022/10/06 11:21:02;;;;;;;1.95;1.55;;;;;;;19.32;64.60;101452.19;1929353;89;27617;-66
2022/10/06 11:24:30;;;;;;;3.12;1.35;;;;;;;19.31;64.22;101449.59;1925859;90;28683;-66
2022/10/06 11:27:46;;;;;;;3.35;1.10;;;;;;;19.28;63.82;101457.44;1907184;89;30557;-66
2022/10/06 11:31:09;;;;;;;2.42;0.75;;;;;;;19.35;63.79;101456.06;1975364;86;33534;-67
2022/10/06 11:34:11;;;;;;;8.78;1.02;;;;;;;19.46;62.98;101456.69;1992624;88;29837;-66
2022/10/06 11:37:21;;;;;;;3.27;0.88;;;;;;;19.58;62.99;101459.05;2003498;88;27820;-66
2022/10/06 11:40:36;;;;;;;1.65;1.00;;;;;;;19.62;62.48;101461.91;2013549;88;29278;-66
2022/10/06 11:43:49;;;;;;;;;;;;;;;19.65;62.16;101463.06;1989079;87;31090;-66
2022/10/06 11:46:57;;;;;;;1.67;0.95;;;;;;;19.63;61.43;101460.08;1990681;87;33007;-67
2022/10/06 11:49:58;;;;;;;0.82;0.68;;;;;;;19.54;61.03;101461.59;1960470;88;29788;-66
2022/10/06 11:53:00;;;;;;;2.98;0.80;;;;;;;19.59;60.97;101473.03;2028875;86;27881;-66
2022/10/06 11:56:22;;;;;;;2.45;1.00;;;;;;;19.67;59.98;101461.11;2020131;86;28141;-66
2022/10/06 11:59:30;;;;;;;2.80;0.70;;;;;;;19.69;60.55;101465.96;2008673;87;31219;-66
2022/10/06 12:02:36;;;;;;;1.37;0.68;;;;;;;19.74;60.32;101455.64;2007760;87;34383;-66
2022/10/06 12:05:38;;;;;;;4.15;1.22;;;;;;;19.84;60.31;101465.39;2015054;87;29373;-66
2022/10/06 12:08:40;;;;;;;3.45;0.80;;;;;;;19.92;60.05;101463.52;2024017;86;27809;-65
2022/10/06 12:11:44;;;;;;;2.55;0.75;;;;;;;19.98;59.79;101474.45;2052971;84;29976;-67
2022/10/06 12:15:15;;;;;;;3.30;1.00;;;;;;;19.98;59.78;101459.48;2086935;84;31085;-67
2022/10/06 12:18:40;;;;;;;3.95;1.10;;;;;;;20.03;59.52;101466.81;2079623;84;33163;-66
2022/10/06 12:21:50;;;;;;;1.52;0.82;;;;;;;20.11;58.97;101465.78;2082056;83;29409;-67
2022/10/06 12:25:24;;;;;;;5.75;1.27;;;;;;;20.17;58.99;101469.44;2110441;82;27643;-67
2022/10/06 12:29:04;;;;;;;3.12;1.45;;;;;;;20.21;58.41;101461.92;2108144;83;28686;-68
2022/10/06 12:32:29;;;;;;;3.10;1.40;;;;;;;20.20;58.25;101480.59;2099575;83;31460;-66
2022/10/06 12:35:38;;;;;;;2.37;1.42;;;;;;;20.20;58.00;101484.67;2096874;83;33761;-66
2022/10/06 12:38:43;;;;;;;1.27;0.70;;;;;;;20.20;57.96;101490.11;2102326;83;30171;-65
2022/10/06 12:42:00;;;;;;;;;;;;;;;20.17;57.83;101496.66;2099677;83;27822;-66
2022/10/06 12:45:07;;;;;;;3.37;0.90;;;;;;;20.13;57.23;101494.23;2083270;83;29085;-65
2022/10/06 12:48:31;;;;;;;2.87;1.17;;;;;;;20.06;57.51;101506.05;2095639;83;31218;-66
2022/10/06 12:51:39;;;;;;;3.62;0.95;;;;;;;20.04;57.18;101499.84;2061350;84;34352;-66
2022/10/06 12:55:10;;;;;;;2.58;0.90;;;;;;;19.99;57.16;101505.61;2061366;84;29925;-66
2022/10/06 12:58:22;;;;;;;2.02;1.15;;;;;;;19.93;57.05;101505.17;2042872;85;28414;-66
2022/10/06 13:01:25;;;;;;;3.77;1.52;;;;;;;19.93;57.20;101500.62;2053295;85;29543;-65
2022/10/06 13:04:33;;;;;;;2.62;1.40;;;;;;;19.93;57.25;101511.50;1985515;88;31084;-66
2022/10/06 13:07:43;;;;;;;2.20;1.05;;;;;;;19.98;57.41;101514.75;2071239;85;33398;-66
2022/10/06 13:10:45;;;;;;;6.55;1.37;;;;;;;20.02;57.18;101511.34;2068488;85;30525;-66
2022/10/06 13:13:53;;;;;;;4.05;1.20;;;;;;;20.01;57.55;101512.31;2081736;84;27710;-66
2022/10/06 13:16:54;;;;;;;4.28;1.12;;;;;;;20.07;57.57;101518.67;2055532;84;30031;-66
2022/10/06 13:19:55;;;;;;;2.30;1.00;;;;;;;20.12;57.65;101524.66;2035825;83;32222;-66
2022/10/06 13:23:05;;;;;;;1.37;1.07;;;;;;;20.09;56.79;101524.02;2074730;83;33560;-66
2022/10/06 13:26:22;;;;;;;5.05;1.10;;;;;;;20.05;56.55;101521.98;2072443;84;29360;-65
2022/10/06 13:29:25;;;;;;;2.15;0.90;;;;;;;19.99;56.50;101515.63;2066685;83;27703;-66
2022/10/06 13:32:26;;;;;;;6.40;1.22;;;;;;;19.87;56.42;101519.57;2073652;85;28505;-66
2022/10/06 13:35:28;;;;;;;2.20;0.98;;;;;;;19.78;56.73;101519.30;2071448;85;31906;-67
2022/10/06 13:38:33;;;;;;;6.08;0.90;;;;;;;19.67;56.70;101518.20;2076406;84;34227;-66
2022/10/06 13:42:04;;;;;;;3.15;1.10;;;;;;;19.54;56.80;101518.17;2064988;84;29371;-66
2022/10/06 13:45:13;;;;;;;3.20;1.50;;;;;;;19.38;56.86;101514.75;2065463;84;27742;-66
2022/10/06 13:48:19;;;;;;;2.95;1.17;;;;;;;19.18;57.01;101522.42;2062330;84;29406;-66
2022/10/06 13:51:24;;;;;;;3.50;1.07;;;;;;;18.98;56.97;101523.24;2112542;83;31114;-66
2022/10/06 13:54:40;;;;;;;3.95;1.15;;;;;;;18.82;57.17;101526.55;2095350;83;32985;-66
2022/10/06 13:57:48;;;;;;;3.30;0.90;;;;;;;18.67;57.48;101521.61;2102808;83;29414;-66
2022/10/06 14:01:06;;;;;;;2.95;1.10;;;;;;;18.52;57.69;101527.05;2100602;83;27788;-66
2022/10/06 14:04:19;;;;;;;3.50;0.85;;;;;;;18.39;57.55;101528.81;2119183;83;27732;-66
2022/10/06 14:07:25;;;;;;;2.80;1.02;;;;;;;18.26;57.61;101530.55;2094146;83;27820;-66
2022/10/06 14:10:48;;;;;;;6.62;1.00;;;;;;;18.14;57.93;101524.05;2093750;83;33676;-66
2022/10/06 14:14:05;;;;;;;4.45;1.10;;;;;;;18.02;58.24;101529.27;2092503;83;29421;-65
2022/10/06 14:17:29;;;;;;;2.87;0.90;;;;;;;17.92;58.25;101537.52;2086678;83;27877;-65
2022/10/06 14:20:56;;;;;;;3.40;1.00;;;;;;;17.78;58.11;101542.45;2078090;83;28697;-64
2022/10/06 14:23:59;;;;;;;4.83;2.30;;;;;;;17.66;58.44;101543.16;2082073;83;32538;-65
2022/10/06 14:27:05;;;;;;;4.03;1.00;;;;;;;17.54;58.54;101547.50;2062812;84;33085;-66
2022/10/06 14:30:09;;;;;;;4.95;1.00;;;;;;;17.43;58.66;101547.62;2051703;85;30227;-65
2022/10/06 14:33:11;;;;;;;3.37;0.90;;;;;;;17.35;58.88;101546.33;2050962;86;28332;-65
2022/10/06 14:36:17;;;;;;;6.92;1.37;;;;;;;17.24;58.86;101552.36;2050295;85;28729;-65
2022/10/06 14:39:19;;;;;;;3.98;0.90;;;;;;;17.15;59.13;101554.66;2071057;84;31240;-65